Freetown, Massachusetts
Current Conditions -  °F | °C
As of 7:52 AM on Saturday 25 Oct 2014 (Local Time) from KTAN Reporting Station
Clear Clear  
Wind Chill: 43°   Ceiling: Unl
Heat Index: 45°   Visibility: 10mi
Dew Point: 40°   Wind: 5mph
Humidity: 82%   Direction: 260°W
Pressure: 29.78"   Gusts: NA
Location:  41.782°N, 71.0542°W
Report Text: KTAN 251152Z AUTO 26004KT 10SM CLR 07/04 A2978 RMK AO2 SLP084 T00720044 10072 20033 53006
Loading
Personal Weather Stations






























Interactive Weather Map
Tropical Storm Tracking
New forecast layout! Learn more

10-Day Weather Forecast

Advertisements
Track Severe Weather on mobile